Time;durP1;ratioP1;P1;durP2;ratioP2;P2;SDS_P1;SDS_P2;PMS_P1;PMS_P2;Temp;Humidity;BMP_temperature;BMP_pressure;BME280_temperature;BME280_humidity;BME280_pressure;Samples;Min_cycle;Max_cycle;Signal;HPM_P1;HPM_P2
2021/12/21 00:01:48;;;;;;;15.55;7.63;;;26.10;2201.60;;;;;;4862276;29;20052;-79
2021/12/21 00:04:14;;;;;;;10.73;6.90;;;26.10;2201.60;;;;;;4867894;29;20029;-79
2021/12/21 00:06:42;;;;;;;10.45;7.07;;;26.10;2201.60;;;;;;4873382;29;20033;-79
2021/12/21 00:09:08;;;;;;;9.05;6.47;;;26.00;2201.60;;;;;;4869016;29;20441;-79
2021/12/21 00:11:35;;;;;;;12.52;6.70;;;26.00;2201.60;;;;;;4897173;29;20039;-79
2021/12/21 00:14:46;;;;;;;9.77;6.47;;;25.90;2201.60;;;;;;4928352;29;20036;-79
2021/12/21 00:17:41;;;;;;;11.95;7.25;;;25.90;2201.60;;;;;;4951076;29;20086;-79
2021/12/21 00:25:19;;;;;;;13.02;7.70;;;25.80;2201.60;;;;;;4903015;29;20184;-80
2021/12/21 00:27:48;;;;;;;10.30;6.03;;;25.80;2201.60;;;;;;4898639;29;20531;-79
2021/12/21 00:30:14;;;;;;;10.90;6.50;;;25.80;2201.60;;;;;;4896116;29;20040;-79
2021/12/21 00:32:46;;;;;;;11.55;7.70;;;25.80;2201.60;;;;;;4911204;29;20041;-79
2021/12/21 00:35:13;;;;;;;14.75;7.65;;;25.80;2201.60;;;;;;4893820;29;20149;-80
2021/12/21 00:38:03;;;;;;;11.55;7.03;;;25.80;2201.60;;;;;;4908376;29;20060;-79
2021/12/21 00:40:31;;;;;;;12.60;6.57;;;25.70;2201.60;;;;;;4888048;29;20100;-79
2021/12/21 00:43:04;;;;;;;11.07;6.25;;;25.70;2201.60;;;;;;4893436;29;20048;-80
2021/12/21 00:46:32;;;;;;;9.48;7.32;;;25.70;2201.60;;;;;;4893203;29;20060;-80
2021/12/21 00:49:47;;;;;;;8.80;6.35;;;25.70;2201.60;;;;;;4862101;29;20133;-80
2021/12/21 00:53:13;;;;;;;10.88;5.82;;;25.80;2201.60;;;;;;4887877;29;20066;-81
2021/12/21 00:56:23;;;;;;;10.05;6.53;;;25.80;2201.60;;;;;;4883613;29;20025;-80
2021/12/21 00:59:19;;;;;;;9.88;5.97;;;25.70;2201.60;;;;;;4879175;29;20037;-80
2021/12/21 01:01:45;;;;;;;10.90;6.57;;;25.70;2201.60;;;;;;4834549;29;20038;-79
2021/12/21 01:04:33;;;;;;;8.10;5.80;;;25.70;2201.60;;;;;;4835739;29;20030;-81
2021/12/21 01:09:01;;;;;;;13.77;6.90;;;25.70;2201.60;;;;;;4823088;29;20044;-80
2021/12/21 01:11:41;;;;;;;12.20;6.43;;;25.80;2201.60;;;;;;4765207;30;20032;-80
2021/12/21 01:17:07;;;;;;;9.40;5.88;;;25.80;2201.60;;;;;;4754023;30;20163;-80
2021/12/21 01:20:11;;;;;;;12.35;7.30;;;25.80;2201.60;;;;;;4762166;30;20032;-80
2021/12/21 01:30:14;;;;;;;13.95;6.15;;;25.80;2201.60;;;;;;4690331;30;20068;-80
2021/12/21 01:36:20;;;;;;;11.07;6.13;;;25.70;2201.60;;;;;;4682754;30;20122;-80
2021/12/21 01:39:30;;;;;;;9.52;6.57;;;25.70;2201.60;;;;;;4660218;30;20055;-80
2021/12/21 02:12:25;;;;;;;9.50;5.77;;;25.70;2201.60;;;;;;3196810;27;20159;-80
2021/12/21 02:14:58;;;;;;;11.52;5.95;;;25.70;2201.60;;;;;;4936180;29;20262;-80
2021/12/21 02:21:33;;;;;;;10.02;6.72;;;25.70;2201.60;;;;;;4939317;29;20059;-80
2021/12/21 02:25:30;;;;;;;8.18;5.63;;;25.80;2201.60;;;;;;4913515;29;20080;-80
2021/12/21 02:31:01;;;;;;;11.20;6.22;;;25.90;2201.60;;;;;;4877273;29;20057;-81
2021/12/21 02:34:23;;;;;;;10.80;5.60;;;26.00;2201.60;;;;;;4789100;30;20040;-80
2021/12/21 02:37:27;;;;;;;10.77;5.82;;;26.00;2201.60;;;;;;4745284;30;20072;-81
2021/12/21 02:41:08;;;;;;;9.25;5.30;;;26.10;2201.60;;;;;;4659953;30;20054;-80
2021/12/21 02:51:44;;;;;;;7.97;4.88;;;26.10;2201.60;;;;;;4596037;30;20082;-81
2021/12/21 02:55:01;;;;;;;13.60;8.35;;;26.10;2201.60;;;;;;4590660;31;20118;-81
2021/12/21 03:10:59;;;;;;;6.55;5.30;;;26.10;2201.60;;;;;;4912794;29;20318;-79
2021/12/21 03:16:10;;;;;;;9.57;5.07;;;26.00;2201.60;;;;;;4903212;29;20040;-79
2021/12/21 03:18:36;;;;;;;7.75;4.80;;;26.10;2201.60;;;;;;4872235;29;20127;-79
2021/12/21 03:21:05;;;;;;;9.35;5.40;;;26.00;2201.60;;;;;;4896403;29;20120;-79
2021/12/21 03:23:30;;;;;;;11.40;4.95;;;26.00;2201.60;;;;;;4883706;29;20036;-79
2021/12/21 03:26:17;;;;;;;11.05;5.18;;;26.00;2201.60;;;;;;4885600;29;20033;-79
2021/12/21 03:28:51;;;;;;;;;;;26.00;2201.60;;;;;;4887358;29;20033;-79
2021/12/21 03:31:55;;;;;;;6.85;4.90;;;26.00;2201.60;;;;;;4886961;29;19908;-80
2021/12/21 03:34:49;;;;;;;12.38;5.75;;;25.90;2201.60;;;;;;4815852;29;20039;-81
2021/12/21 03:38:25;;;;;;;7.95;5.15;;;26.00;2201.60;;;;;;4814420;29;20053;-80
2021/12/21 03:41:57;;;;;;;9.63;7.13;;;25.90;2201.60;;;;;;4797834;29;20063;-80
2021/12/21 03:48:41;;;;;;;9.75;5.93;;;25.80;2201.60;;;;;;4721198;30;20155;-78
2021/12/21 03:55:22;;;;;;;7.90;5.07;;;0.40;2201.60;;;;;;4681973;30;20094;-80
2021/12/21 03:58:20;;;;;;;10.70;4.93;;;25.70;2201.60;;;;;;4705634;30;20062;-80
2021/12/21 04:01:53;;;;;;;8.68;4.93;;;25.70;2201.60;;;;;;4673167;30;20046;-80
2021/12/21 04:05:02;;;;;;;9.48;5.38;;;25.70;2201.60;;;;;;4622167;30;20037;-80
2021/12/21 04:08:35;;;;;;;8.30;5.32;;;25.70;2201.60;;;;;;4622454;30;20021;-81
2021/12/21 05:27:24;;;;;;;11.55;6.38;;;26.00;2201.60;;;;;;1998267;23;20050;31
2021/12/21 05:33:51;;;;;;;12.07;7.70;;;26.00;2201.60;;;;;;4847814;29;20049;-80
2021/12/21 05:36:19;;;;;;;21.92;8.82;;;26.00;2201.60;;;;;;4840903;29;20035;-80
2021/12/21 05:38:56;;;;;;;10.60;8.13;;;26.00;2201.60;;;;;;4843954;29;20140;-79
2021/12/21 05:41:28;;;;;;;15.27;8.20;;;26.00;2201.60;;;;;;4840079;29;20050;-79
2021/12/21 05:43:55;;;;;;;17.38;8.27;;;25.90;2201.60;;;;;;4824973;29;20043;-79
2021/12/21 05:46:27;;;;;;;13.40;8.45;;;25.90;2201.60;;;;;;4824258;29;20015;-80
2021/12/21 05:49:09;;;;;;;12.45;8.43;;;26.00;2201.60;;;;;;4825932;29;20054;-79
2021/12/21 05:52:16;;;;;;;14.38;10.25;;;25.90;2201.60;;;;;;4756954;30;20028;-80
2021/12/21 05:54:50;;;;;;;15.18;7.85;;;26.00;2201.60;;;;;;4770990;30;20041;-80
2021/12/21 07:25:25;;;;;;;19.80;13.30;;;25.70;2201.60;;;;;;4882000;29;20209;-80
2021/12/21 07:28:07;;;;;;;17.80;10.90;;;25.60;2201.60;;;;;;4881815;29;20041;-80
2021/12/21 07:31:02;;;;;;;21.65;10.82;;;25.60;2201.60;;;;;;4864386;29;20022;-81
2021/12/21 07:34:14;;;;;;;25.60;10.70;;;25.70;2201.60;;;;;;4810067;29;20042;-80
2021/12/21 07:37:39;;;;;;;17.05;10.50;;;25.70;2201.60;;;;;;4773625;30;20087;-80
2021/12/21 07:55:01;;;;;;;18.23;9.80;;;26.00;2201.60;;;;;;4632421;30;20036;-80
2021/12/21 07:58:38;;;;;;;16.05;10.02;;;26.10;2201.60;;;;;;4607616;30;20045;-80
2021/12/21 08:05:37;;;;;;;19.98;9.50;;;26.20;2201.60;;;;;;4655212;30;20079;-81
2021/12/21 09:59:32;;;;;;;21.70;10.68;;;102.40;2227.20;;;;;;4895650;29;20100;-80
2021/12/21 10:02:03;;;;;;;31.50;12.90;;;102.60;2227.20;;;;;;4884295;29;20041;-79
2021/12/21 10:25:09;;;;;;;32.38;18.08;;;128.20;2252.80;;;;;;4901786;29;20303;-81
2021/12/21 10:28:01;;;;;;;33.05;19.48;;;128.10;2252.80;;;;;;4899803;29;20024;-79
2021/12/21 10:56:38;;;;;;;29.93;19.77;;;154.40;2252.80;;;;;;5450080;23;20060;-81
2021/12/21 11:02:23;;;;;;;94.00;49.43;;;128.70;2252.80;;;;;;5664819;23;20116;-79
2021/12/21 11:04:54;;;;;;;84.78;42.92;;;103.30;2227.20;;;;;;4912441;29;20520;-78
2021/12/21 11:07:32;;;;;;;53.08;31.67;;;103.20;2227.20;;;;;;4892640;29;20446;-78
2021/12/21 11:10:11;;;;;;;34.30;20.38;;;103.10;2227.20;;;;;;4883372;29;20040;-78
2021/12/21 11:12:49;;;;;;;32.22;18.75;;;103.10;2227.20;;;;;;4908879;29;20040;-78
2021/12/21 11:15:21;;;;;;;31.23;17.40;;;103.10;2227.20;;;;;;4901868;29;20041;-78
2021/12/21 11:17:56;;;;;;;36.80;17.02;;;103.10;2227.20;;;;;;4907000;29;20128;-80
2021/12/21 11:21:14;;;;;;;32.80;17.67;;;103.30;2227.20;;;;;;4921056;29;20056;-80
2021/12/21 11:24:02;;;;;;;32.65;17.73;;;102.90;2227.20;;;;;;4813887;29;20039;-78
2021/12/21 11:26:30;;;;;;;26.25;16.35;;;103.20;2227.20;;;;;;4789209;29;20438;-78
2021/12/21 11:29:04;;;;;;;39.92;22.65;;;128.20;2252.80;;;;;;4809229;29;20034;-79
2021/12/21 11:31:54;;;;;;;30.48;18.48;;;128.00;2252.80;;;;;;4797682;29;20054;-78
2021/12/21 11:34:36;;;;;;;26.30;14.95;;;128.00;2252.80;;;;;;4788900;29;20046;-79
2021/12/21 11:37:21;;;;;;;26.38;13.90;;;128.40;2252.80;;;;;;4801993;30;20043;-79
2021/12/21 11:39:47;;;;;;;41.30;20.80;;;128.70;2252.80;;;;;;4785740;30;20063;-79
2021/12/21 11:42:41;;;;;;;31.00;18.58;;;128.60;2252.80;;;;;;4801165;30;20039;-79
2021/12/21 11:46:04;;;;;;;36.92;21.02;;;153.70;2252.80;;;;;;4787859;30;20039;-79
2021/12/21 11:48:58;;;;;;;78.75;43.05;;;179.40;2252.80;;;;;;4749437;30;20043;-79
2021/12/21 11:51:27;;;;;;;28.65;17.60;;;153.70;2252.80;;;;;;4732123;30;20187;-79
2021/12/21 11:53:56;;;;;;;19.25;11.77;;;128.90;2252.80;;;;;;4745783;30;20096;-79
2021/12/21 11:56:27;;;;;;;36.58;24.50;;;153.60;2252.80;;;;;;4746059;30;20087;-80
2021/12/21 11:58:56;;;;;;;24.30;14.52;;;128.50;2252.80;;;;;;4731441;30;20040;-79
2021/12/21 12:01:28;;;;;;;29.42;15.30;;;128.60;2252.80;;;;;;4776733;30;20036;-79
2021/12/21 12:04:08;;;;;;;23.55;14.15;;;128.40;2252.80;;;;;;4784542;30;20098;-80
2021/12/21 12:06:52;;;;;;;29.75;17.08;;;128.80;2252.80;;;;;;4801482;30;20064;-80
2021/12/21 12:09:36;;;;;;;26.58;14.82;;;128.60;2252.80;;;;;;4801889;30;20130;-80
2021/12/21 12:12:09;;;;;;;18.95;10.32;;;128.50;2252.80;;;;;;4798336;30;20043;-79
2021/12/21 12:14:40;;;;;;;20.65;10.95;;;103.30;2227.20;;;;;;4807319;29;20118;-80
2021/12/21 12:17:17;;;;;;;26.35;15.13;;;103.10;2227.20;;;;;;4792342;29;20536;-74
2021/12/21 12:19:53;;;;;;;22.58;11.60;;;103.20;2227.20;;;;;;4803906;29;20059;-74
2021/12/21 12:22:24;;;;;;;16.60;9.88;;;103.20;2227.20;;;;;;4789561;29;20054;-74
2021/12/21 12:24:58;;;;;;;12.32;8.30;;;103.20;2227.20;;;;;;4859358;29;20033;-75
2021/12/21 12:27:26;;;;;;;20.38;11.65;;;103.10;2227.20;;;;;;4890742;29;20032;-74
2021/12/21 12:29:57;;;;;;;26.65;12.95;;;102.90;2227.20;;;;;;4883669;29;20041;-74
2021/12/21 12:32:32;;;;;;;22.08;13.85;;;102.70;2227.20;;;;;;4885730;29;20037;-74
2021/12/21 12:35:03;;;;;;;31.73;16.92;;;102.80;2227.20;;;;;;4885692;29;20036;-74
2021/12/21 12:37:29;;;;;;;26.23;14.50;;;103.10;2227.20;;;;;;4885536;29;20025;-74
2021/12/21 12:40:00;;;;;;;35.92;18.70;;;103.10;2227.20;;;;;;4885516;29;20047;-74
2021/12/21 12:42:32;;;;;;;37.53;21.70;;;103.00;2227.20;;;;;;4884297;29;20138;-74
2021/12/21 12:45:10;;;;;;;26.98;13.57;;;103.30;2227.20;;;;;;4869725;29;20037;-74
2021/12/21 12:47:49;;;;;;;21.85;11.13;;;128.10;2252.80;;;;;;4884485;29;20110;-74
2021/12/21 12:50:17;;;;;;;20.15;11.38;;;128.70;2252.80;;;;;;4877666;29;20128;-74
2021/12/21 12:52:53;;;;;;;18.50;9.75;;;153.60;2252.80;;;;;;4881332;29;20040;-74
2021/12/21 12:55:19;;;;;;;31.47;14.83;;;128.20;2252.80;;;;;;4897293;29;20037;-74
2021/12/21 12:57:59;;;;;;;23.08;12.45;;;103.10;2227.20;;;;;;4873523;29;20373;-74
2021/12/21 13:00:25;;;;;;;13.13;9.00;;;103.00;2227.20;;;;;;4866037;29;20076;-74
2021/12/21 13:03:08;;;;;;;12.98;8.30;;;103.10;2227.20;;;;;;4885310;29;20079;-75
2021/12/21 13:05:53;;;;;;;34.58;13.43;;;128.10;2252.80;;;;;;4896002;29;20046;-74
2021/12/21 13:08:23;;;;;;;16.67;11.50;;;103.20;2227.20;;;;;;4894685;29;20089;-74
2021/12/21 13:10:56;;;;;;;23.00;12.68;;;128.10;2252.80;;;;;;4897795;29;20097;-74
2021/12/21 13:13:35;;;;;;;22.85;12.73;;;128.20;2252.80;;;;;;4880997;29;20040;-75
2021/12/21 13:16:11;;;;;;;20.55;11.70;;;128.10;2252.80;;;;;;4898199;29;20119;-74
2021/12/21 13:18:47;;;;;;;14.85;8.98;;;103.20;2227.20;;;;;;4895748;29;20040;-74
2021/12/21 13:21:19;;;;;;;14.57;9.63;;;103.30;2227.20;;;;;;4895889;29;20396;-74
2021/12/21 13:23:49;;;;;;;14.48;9.02;;;102.90;2227.20;;;;;;4881415;29;20437;-74
2021/12/21 13:26:17;;;;;;;13.82;10.20;;;102.70;2227.20;;;;;;4893810;29;20051;-74
2021/12/21 13:28:55;;;;;;;21.48;12.90;;;102.70;2227.20;;;;;;4899265;29;20060;-74
2021/12/21 13:31:23;;;;;;;22.63;12.25;;;102.70;2227.20;;;;;;4896266;29;20036;-75
2021/12/21 13:33:58;;;;;;;16.98;10.65;;;102.60;2227.20;;;;;;4881606;29;20036;-74
2021/12/21 13:36:41;;;;;;;15.27;11.05;;;102.80;2227.20;;;;;;4898659;29;20081;-74
2021/12/21 13:39:35;;;;;;;26.58;14.95;;;102.50;2227.20;;;;;;4902771;29;20452;-78
2021/12/21 13:42:40;;;;;;;30.60;15.32;;;77.70;2227.20;;;;;;4900289;29;20037;-79
2021/12/21 13:45:54;;;;;;;23.80;14.57;;;77.50;2227.20;;;;;;4831490;29;20026;-79
2021/12/21 13:48:39;;;;;;;24.73;13.88;;;77.50;2227.20;;;;;;4828464;29;20106;-81
2021/12/21 13:51:57;;;;;;;21.27;12.65;;;77.30;2227.20;;;;;;4829378;29;20035;-79
2021/12/21 13:54:54;;;;;;;20.38;13.43;;;77.40;2227.20;;;;;;4808827;29;20039;-79
2021/12/21 14:01:44;;;;;;;29.05;15.50;;;102.40;2227.20;;;;;;4827777;29;20025;-80
2021/12/21 14:05:20;;;;;;;61.08;32.13;;;102.80;2227.20;;;;;;4790151;29;20091;-79
2021/12/21 14:07:59;;;;;;;27.15;15.63;;;102.70;2227.20;;;;;;4790690;29;20055;-80
2021/12/21 14:10:26;;;;;;;39.92;20.15;;;102.90;2227.20;;;;;;4770859;30;20043;-79
2021/12/21 14:13:03;;;;;;;36.72;19.80;;;102.80;2227.20;;;;;;4806112;30;20039;-80
2021/12/21 14:15:58;;;;;;;20.80;13.90;;;102.70;2227.20;;;;;;4790453;29;20071;-79
2021/12/21 14:18:30;;;;;;;31.20;16.92;;;102.60;2227.20;;;;;;4766296;30;20040;-79
2021/12/21 14:21:11;;;;;;;92.22;45.47;;;102.60;2227.20;;;;;;4794514;29;20035;-79
2021/12/21 14:23:44;;;;;;;37.35;23.83;;;102.60;2227.20;;;;;;4816706;29;20046;-80
2021/12/21 14:26:13;;;;;;;36.90;19.67;;;102.60;2227.20;;;;;;4847789;29;20038;-80
2021/12/21 14:29:02;;;;;;;45.10;21.88;;;102.60;2227.20;;;;;;4844832;29;20053;-79
2021/12/21 14:32:18;;;;;;;37.78;20.75;;;102.60;2227.20;;;;;;4826949;29;20060;-80
2021/12/21 14:34:59;;;;;;;28.58;16.50;;;102.60;2227.20;;;;;;4848690;29;20085;-80
2021/12/21 14:37:27;;;;;;;26.60;16.52;;;102.40;2227.20;;;;;;4829881;29;20062;-80
2021/12/21 14:39:55;;;;;;;28.38;16.88;;;77.60;2227.20;;;;;;4847909;29;20068;-79
2021/12/21 14:42:25;;;;;;;46.67;22.65;;;102.40;2227.20;;;;;;4918514;29;20041;-79
2021/12/21 14:44:59;;;;;;;39.13;19.55;;;77.50;2227.20;;;;;;4904784;29;20044;-79
2021/12/21 14:47:39;;;;;;;36.75;20.88;;;77.40;2227.20;;;;;;4919013;29;20028;-79
2021/12/21 14:50:18;;;;;;;29.65;17.95;;;77.20;2227.20;;;;;;4901465;29;20032;-79
2021/12/21 14:52:50;;;;;;;41.00;21.90;;;77.10;2227.20;;;;;;4909875;29;20056;-79
2021/12/21 14:55:30;;;;;;;35.72;22.33;;;77.00;2227.20;;;;;;4915444;29;20041;-79
2021/12/21 14:58:09;;;;;;;44.60;26.10;;;76.90;2227.20;;;;;;4901526;29;20448;-78
2021/12/21 15:00:38;;;;;;;57.03;30.90;;;76.90;2227.20;;;;;;4902128;29;20048;-78
2021/12/21 15:03:07;;;;;;;52.45;29.38;;;76.80;2227.20;;;;;;4901786;29;20036;-79
2021/12/21 15:05:35;;;;;;;51.08;28.08;;;76.80;2227.20;;;;;;4894162;29;20412;-79
2021/12/21 15:08:04;;;;;;;58.17;29.58;;;52.10;2227.20;;;;;;4901166;29;20028;-78
2021/12/21 15:10:33;;;;;;;56.40;32.25;;;52.00;2227.20;;;;;;4902893;29;20449;-78
2021/12/21 15:13:02;;;;;;;83.18;41.30;;;52.00;2227.20;;;;;;4903127;29;20041;-77
2021/12/21 15:15:33;;;;;;;104.78;54.75;;;51.90;2227.20;;;;;;4917193;29;20041;-80
2021/12/21 15:17:59;;;;;;;104.57;49.25;;;51.90;2227.20;;;;;;4917218;29;20048;-80
2021/12/21 15:20:27;;;;;;;87.80;47.00;;;51.80;2227.20;;;;;;4917057;29;20040;-79
2021/12/21 15:22:56;;;;;;;98.88;48.40;;;51.70;2227.20;;;;;;4918161;29;20052;-79
2021/12/21 15:25:28;;;;;;;101.22;54.65;;;51.70;2227.20;;;;;;4916869;29;20032;-79
2021/12/21 15:28:03;;;;;;;137.00;69.53;;;51.70;2227.20;;;;;;4915536;29;20037;-79
2021/12/21 15:30:31;;;;;;;128.82;69.80;;;51.60;2227.20;;;;;;4903040;29;20040;-79
2021/12/21 15:32:57;;;;;;;109.22;56.63;;;51.50;2227.20;;;;;;4913464;29;20102;-80
2021/12/21 15:35:25;;;;;;;101.32;51.30;;;51.50;2227.20;;;;;;4904161;29;20127;-79
2021/12/21 15:37:51;;;;;;;75.90;43.15;;;51.50;2227.20;;;;;;4899647;29;20096;-78
2021/12/21 15:40:20;;;;;;;76.80;41.40;;;51.50;2227.20;;;;;;4900882;29;20131;-79
2021/12/21 15:42:47;;;;;;;59.75;34.30;;;51.50;2227.20;;;;;;4907933;29;20060;-79
2021/12/21 15:45:14;;;;;;;68.57;37.15;;;51.40;2227.20;;;;;;4901639;29;20042;-79
2021/12/21 15:47:40;;;;;;;78.07;43.25;;;51.40;2227.20;;;;;;4887349;29;20403;-79
2021/12/21 15:50:10;;;;;;;86.18;44.00;;;51.40;2227.20;;;;;;4897124;29;20567;-79
2021/12/21 15:52:36;;;;;;;97.93;50.20;;;51.40;2227.20;;;;;;4888418;29;20044;-79
2021/12/21 15:55:05;;;;;;;109.22;56.83;;;51.40;2227.20;;;;;;4904826;29;20447;-79
2021/12/21 15:57:31;;;;;;;81.85;47.95;;;51.40;2227.20;;;;;;4904730;29;20069;-79
2021/12/21 16:00:02;;;;;;;82.68;42.72;;;51.40;2227.20;;;;;;4893813;29;20050;-79
2021/12/21 16:02:29;;;;;;;85.22;47.78;;;51.40;2227.20;;;;;;4906390;29;20404;-79
2021/12/21 16:05:00;;;;;;;94.28;53.10;;;51.30;2227.20;;;;;;4907572;29;20149;-79
2021/12/21 16:07:29;;;;;;;176.48;84.50;;;51.30;2227.20;;;;;;4918874;29;20076;-79
2021/12/21 16:13:31;;;;;;;115.45;59.92;;;26.50;2201.60;;;;;;4905622;29;20090;-80
2021/12/21 16:16:21;;;;;;;116.40;59.05;;;26.50;2201.60;;;;;;4918172;29;20061;-80
2021/12/21 16:19:30;;;;;;;;;;;26.40;2201.60;;;;;;4865456;29;20018;-80
2021/12/21 16:23:02;;;;;;;111.68;64.18;;;26.40;2201.60;;;;;;4848627;29;19917;-80
2021/12/21 16:25:58;;;;;;;145.70;87.85;;;26.30;2201.60;;;;;;4811155;29;20043;-80
2021/12/21 16:28:37;;;;;;;121.70;64.80;;;26.30;2201.60;;;;;;4810289;29;20019;-80
2021/12/21 16:41:10;;;;;;;146.02;74.88;;;26.20;2201.60;;;;;;4795367;29;20449;-80
2021/12/21 16:44:23;;;;;;;141.88;77.53;;;26.10;2201.60;;;;;;4807016;29;20038;-80
2021/12/21 16:47:24;;;;;;;117.75;66.20;;;26.00;2201.60;;;;;;4797789;29;20061;-81
2021/12/21 16:50:59;;;;;;;136.73;72.40;;;26.10;2201.60;;;;;;4803943;29;20047;-80
2021/12/21 16:54:11;;;;;;;253.73;129.52;;;26.10;2201.60;;;;;;4781103;29;20074;-81
2021/12/21 16:57:43;;;;;;;150.85;82.60;;;26.10;2201.60;;;;;;4750573;30;20021;-81
2021/12/21 17:00:48;;;;;;;127.70;63.63;;;26.10;2201.60;;;;;;4722418;30;20119;-80
2021/12/21 17:14:51;;;;;;;179.93;94.15;;;26.00;2201.60;;;;;;5372018;23;20060;-81
2021/12/21 17:17:49;;;;;;;199.77;109.18;;;26.00;2201.60;;;;;;4890715;29;20064;-80
2021/12/21 17:20:36;;;;;;;147.55;82.25;;;25.90;2201.60;;;;;;4887567;29;20025;-79
2021/12/21 17:23:44;;;;;;;160.63;83.20;;;25.90;2201.60;;;;;;4914392;29;20072;-79
2021/12/21 17:26:15;;;;;;;144.45;77.63;;;26.10;2201.60;;;;;;4911669;29;20045;-79
2021/12/21 17:28:41;;;;;;;161.75;82.75;;;25.90;2201.60;;;;;;4906875;29;20484;-79
2021/12/21 17:31:08;;;;;;;178.52;86.80;;;25.90;2201.60;;;;;;4889450;29;20052;-79
2021/12/21 17:33:37;;;;;;;188.10;97.80;;;25.90;2201.60;;;;;;4901745;29;20103;-78
2021/12/21 17:36:09;;;;;;;222.80;116.50;;;25.90;2201.60;;;;;;4886348;29;20032;-79
2021/12/21 17:38:42;;;;;;;205.15;107.78;;;25.90;2201.60;;;;;;4882873;29;20033;-80
2021/12/21 17:41:09;;;;;;;196.80;106.72;;;25.90;2201.60;;;;;;4893799;29;20085;-79
2021/12/21 17:43:35;;;;;;;188.25;100.47;;;26.00;2201.60;;;;;;4890373;29;20104;-80
2021/12/21 17:46:02;;;;;;;166.25;89.95;;;26.00;2201.60;;;;;;4875335;29;20105;-79
2021/12/21 17:48:30;;;;;;;152.57;83.63;;;25.90;2201.60;;;;;;4896179;29;20056;-80
2021/12/21 17:50:56;;;;;;;134.65;73.30;;;25.90;2201.60;;;;;;4878723;29;20039;-79
2021/12/21 17:53:22;;;;;;;131.40;70.03;;;25.80;2201.60;;;;;;4877963;29;20040;-79
2021/12/21 17:55:49;;;;;;;147.70;82.03;;;25.90;2201.60;;;;;;4887293;29;20033;-79
2021/12/21 17:58:15;;;;;;;176.07;88.82;;;26.00;2201.60;;;;;;4905773;29;20068;-80
2021/12/21 18:00:52;;;;;;;151.57;83.80;;;26.00;2201.60;;;;;;4902222;29;20021;-80
2021/12/21 18:03:30;;;;;;;136.57;77.18;;;26.10;2201.60;;;;;;4917389;29;20032;-80
2021/12/21 18:06:10;;;;;;;113.15;65.28;;;26.00;2201.60;;;;;;4904898;29;20034;-80
2021/12/21 18:08:55;;;;;;;108.82;61.42;;;26.10;2201.60;;;;;;4892755;29;20241;-80
2021/12/21 18:11:30;;;;;;;104.63;54.67;;;26.10;2201.60;;;;;;4904671;29;20037;-80
2021/12/21 18:13:58;;;;;;;91.50;52.33;;;26.10;2201.60;;;;;;4899838;29;20044;-80
2021/12/21 18:16:27;;;;;;;91.03;56.50;;;26.10;2201.60;;;;;;4861067;29;20056;-79
2021/12/21 18:18:54;;;;;;;113.00;65.22;;;26.10;2201.60;;;;;;4888903;29;20044;-79
2021/12/21 18:21:23;;;;;;;134.60;72.75;;;26.10;2201.60;;;;;;4907218;29;20037;-80
2021/12/21 18:23:51;;;;;;;153.32;76.95;;;26.00;2201.60;;;;;;4900852;29;20040;-79
2021/12/21 18:27:02;;;;;;;133.23;76.00;;;26.00;2201.60;;;;;;4887604;29;20090;-80
2021/12/21 18:29:45;;;;;;;142.90;78.60;;;26.00;2201.60;;;;;;4821640;29;20038;-79
2021/12/21 18:32:12;;;;;;;140.52;74.43;;;26.00;2201.60;;;;;;4821428;29;20078;-79
2021/12/21 18:34:50;;;;;;;146.98;76.80;;;26.00;2201.60;;;;;;4838338;29;20041;-80
2021/12/21 18:37:59;;;;;;;147.20;75.68;;;26.00;2201.60;;;;;;4845398;29;20046;-79
2021/12/21 18:41:25;;;;;;;161.65;88.38;;;25.90;2201.60;;;;;;4826787;29;20045;-80
2021/12/21 18:44:43;;;;;;;151.55;83.10;;;25.70;2201.60;;;;;;4776105;30;20038;-80
2021/12/21 18:47:54;;;;;;;152.80;83.80;;;25.60;2201.60;;;;;;4756443;30;20013;-79
2021/12/21 18:50:58;;;;;;;177.65;98.43;;;0.90;2201.60;;;;;;4747362;30;20177;-80
2021/12/21 18:54:00;;;;;;;228.73;123.03;;;0.80;2201.60;;;;;;4752589;30;20040;-80
2021/12/21 18:57:37;;;;;;;183.43;96.13;;;0.80;2201.60;;;;;;4712978;30;20049;-77
2021/12/21 19:00:47;;;;;;;247.88;130.50;;;0.70;2201.60;;;;;;4709800;30;20133;-77
2021/12/21 19:03:53;;;;;;;254.80;129.60;;;0.60;2201.60;;;;;;4716106;30;20443;-80
2021/12/21 19:06:20;;;;;;;270.05;139.45;;;0.50;2201.60;;;;;;4713251;30;20084;-80
2021/12/21 19:08:47;;;;;;;293.67;149.25;;;0.40;2201.60;;;;;;4694509;30;20045;-79
2021/12/21 19:11:14;;;;;;;261.60;138.52;;;0.50;2201.60;;;;;;4692637;30;20076;-78
2021/12/21 19:13:40;;;;;;;214.43;115.57;;;0.50;2201.60;;;;;;4751431;30;20032;-79
2021/12/21 19:16:34;;;;;;;206.05;116.95;;;0.50;2201.60;;;;;;4767950;30;20148;-80
2021/12/21 19:19:18;;;;;;;189.57;110.10;;;0.40;2201.60;;;;;;4731800;30;20048;-80
2021/12/21 19:21:46;;;;;;;190.30;104.65;;;0.40;2201.60;;;;;;4727182;30;20049;-79
2021/12/21 19:24:11;;;;;;;181.95;101.63;;;0.40;2201.60;;;;;;4725367;30;20044;-80
2021/12/21 19:26:38;;;;;;;175.02;95.20;;;0.40;2201.60;;;;;;4730256;30;20490;-79
2021/12/21 19:29:08;;;;;;;182.20;103.68;;;0.40;2201.60;;;;;;4765135;30;20063;-80
2021/12/21 19:31:35;;;;;;;242.90;132.10;;;0.30;2201.60;;;;;;4765804;30;20040;-79
2021/12/21 19:34:02;;;;;;;218.07;118.85;;;0.30;2201.60;;;;;;4754046;30;20048;-80
2021/12/21 19:36:29;;;;;;;218.88;120.57;;;0.30;2201.60;;;;;;4744059;30;20055;-78
2021/12/21 19:38:59;;;;;;;213.60;119.50;;;0.30;2201.60;;;;;;4736878;30;20052;-78
2021/12/21 19:41:25;;;;;;;206.48;106.10;;;0.30;2201.60;;;;;;4737024;30;20059;-76
2021/12/21 19:44:04;;;;;;;162.70;93.50;;;0.30;2201.60;;;;;;4742486;30;20051;-79
2021/12/21 19:46:29;;;;;;;153.90;83.70;;;0.30;2201.60;;;;;;4734132;30;20040;-78
2021/12/21 19:48:57;;;;;;;167.98;91.43;;;0.30;2201.60;;;;;;4750526;30;20531;-77
2021/12/21 19:51:24;;;;;;;174.18;98.00;;;0.30;2201.60;;;;;;4786632;30;20035;-77
2021/12/21 19:53:53;;;;;;;166.05;93.00;;;0.30;2201.60;;;;;;4789535;29;20448;-77
2021/12/21 19:56:19;;;;;;;152.05;84.95;;;0.30;2201.60;;;;;;4800107;29;20199;-77
2021/12/21 19:58:46;;;;;;;152.55;82.78;;;0.40;2201.60;;;;;;4797238;29;20184;-79
2021/12/21 20:01:15;;;;;;;187.90;104.32;;;0.30;2201.60;;;;;;4802042;29;20046;-79
2021/12/21 20:03:41;;;;;;;243.40;135.27;;;0.30;2201.60;;;;;;4893103;29;20136;-78
2021/12/21 20:06:25;;;;;;;290.65;156.07;;;0.60;2201.60;;;;;;4882885;29;20041;-79
2021/12/21 20:08:51;;;;;;;218.82;124.50;;;0.30;2201.60;;;;;;4872515;29;20037;-80
2021/12/21 20:11:53;;;;;;;200.00;107.22;;;0.30;2201.60;;;;;;4878431;29;20435;-79
2021/12/21 20:14:39;;;;;;;240.75;128.90;;;0.20;2201.60;;;;;;4848696;29;20049;-78
2021/12/21 20:17:15;;;;;;;203.23;112.43;;;0.20;2201.60;;;;;;4826694;29;20042;-80
2021/12/21 20:19:52;;;;;;;205.80;116.68;;;0.10;2201.60;;;;;;4793930;29;20102;-80
2021/12/21 20:22:21;;;;;;;246.00;135.68;;;0.00;2201.60;;;;;;4842547;29;20080;-80
2021/12/21 20:25:17;;;;;;;321.92;172.60;;;0.00;2201.60;;;;;;4839847;29;20075;-79
2021/12/21 20:28:27;;;;;;;218.55;115.03;;;0.00;2201.60;;;;;;4787289;29;20031;-80
2021/12/21 20:31:01;;;;;;;194.82;107.10;;;0.10;2201.60;;;;;;4786303;30;20653;-80
2021/12/21 20:33:31;;;;;;;201.30;114.60;;;0.10;2201.60;;;;;;4785320;30;20095;-79
2021/12/21 20:52:30;;;;;;;91.03;52.23;;;0.10;2201.60;;;;;;4881345;27;20318;-80
2021/12/21 20:54:58;;;;;;;91.95;51.97;;;0.10;2201.60;;;;;;4886462;29;20283;-79
2021/12/21 20:57:24;;;;;;;92.95;52.80;;;0.10;2201.60;;;;;;4890075;29;20037;-79
2021/12/21 20:59:49;;;;;;;97.32;53.80;;;0.10;2201.60;;;;;;4890245;29;20032;-79
2021/12/21 21:02:17;;;;;;;106.40;54.15;;;0.10;2201.60;;;;;;4886752;29;20035;-80
2021/12/21 21:05:16;;;;;;;90.90;51.47;;;0.10;2201.60;;;;;;4917016;29;20052;-79
2021/12/21 21:07:46;;;;;;;92.13;52.42;;;0.10;2201.60;;;;;;4867550;29;20041;-80
2021/12/21 21:10:17;;;;;;;163.30;87.47;;;0.10;2201.60;;;;;;4875151;29;20025;-79
2021/12/21 21:12:43;;;;;;;256.13;128.65;;;0.00;2201.60;;;;;;4873374;29;20044;-79
2021/12/21 21:15:09;;;;;;;143.52;73.70;;;0.00;2201.60;;;;;;4891214;29;20037;-79
2021/12/21 21:17:37;;;;;;;113.18;63.05;;;0.00;2201.60;;;;;;4893247;29;20045;-78
2021/12/21 21:20:10;;;;;;;97.65;56.80;;;0.10;2201.60;;;;;;4872188;29;20040;-79